sensor_id;sensor_type;location;lat;lon;timestamp;pressure;altitude;pressure_sealevel;temperature;humidity
47636;BME280;33364;50.766;15.338;2023-11-19T00:00:43;95271.75;;;0.20;93.49
47636;BME280;33364;50.766;15.338;2023-11-19T00:03:28;95269.97;;;0.21;93.69
47636;BME280;33364;50.766;15.338;2023-11-19T00:05:55;95271.53;;;0.22;93.92
47636;BME280;33364;50.766;15.338;2023-11-19T00:08:21;95268.06;;;0.28;93.88
47636;BME280;33364;50.766;15.338;2023-11-19T00:10:47;95261.81;;;0.35;93.85
47636;BME280;33364;50.766;15.338;2023-11-19T00:13:12;95248.19;;;0.40;93.63
47636;BME280;33364;50.766;15.338;2023-11-19T00:15:38;95245.78;;;0.38;93.62
47636;BME280;33364;50.766;15.338;2023-11-19T00:18:04;95247.03;;;0.36;93.50
47636;BME280;33364;50.766;15.338;2023-11-19T00:20:30;95246.81;;;0.37;93.38
47636;BME280;33364;50.766;15.338;2023-11-19T00:22:56;95241.75;;;0.42;93.19
47636;BME280;33364;50.766;15.338;2023-11-19T00:25:22;95221.78;;;0.43;93.17
47636;BME280;33364;50.766;15.338;2023-11-19T00:27:48;95210.59;;;0.42;93.11
47636;BME280;33364;50.766;15.338;2023-11-19T00:30:14;95201.88;;;0.37;93.03
47636;BME280;33364;50.766;15.338;2023-11-19T00:32:41;95200.06;;;0.37;92.95
47636;BME280;33364;50.766;15.338;2023-11-19T00:35:07;95208.22;;;0.41;93.04
47636;BME280;33364;50.766;15.338;2023-11-19T00:37:34;95207.84;;;0.37;92.86
47636;BME280;33364;50.766;15.338;2023-11-19T00:40:00;95207.50;;;0.34;93.25
47636;BME280;33364;50.766;15.338;2023-11-19T00:42:25;95205.84;;;0.39;93.56
47636;BME280;33364;50.766;15.338;2023-11-19T00:44:52;95176.59;;;0.44;93.45
47636;BME280;33364;50.766;15.338;2023-11-19T00:47:19;95156.63;;;0.45;93.17
47636;BME280;33364;50.766;15.338;2023-11-19T00:49:47;95160.47;;;0.42;93.34
47636;BME280;33364;50.766;15.338;2023-11-19T00:52:16;95139.44;;;0.43;93.63
47636;BME280;33364;50.766;15.338;2023-11-19T00:54:43;95131.88;;;0.42;93.40
47636;BME280;33364;50.766;15.338;2023-11-19T00:57:08;95135.03;;;0.44;93.41
47636;BME280;33364;50.766;15.338;2023-11-19T00:59:34;95135.03;;;0.44;93.35
47636;BME280;33364;50.766;15.338;2023-11-19T01:02:00;95124.25;;;0.47;93.37
47636;BME280;33364;50.766;15.338;2023-11-19T01:04:35;95113.13;;;0.40;93.24
47636;BME280;33364;50.766;15.338;2023-11-19T01:07:04;95106.78;;;0.36;93.25
47636;BME280;33364;50.766;15.338;2023-11-19T01:09:31;95123.50;;;0.40;93.42
47636;BME280;33364;50.766;15.338;2023-11-19T01:12:01;95129.84;;;0.44;93.50
47636;BME280;33364;50.766;15.338;2023-11-19T01:14:28;95127.47;;;0.42;93.17
47636;BME280;33364;50.766;15.338;2023-11-19T01:16:54;95134.63;;;0.47;93.40
47636;BME280;33364;50.766;15.338;2023-11-19T01:19:24;95126.38;;;0.50;93.38
47636;BME280;33364;50.766;15.338;2023-11-19T01:21:52;95125.78;;;0.48;93.28
47636;BME280;33364;50.766;15.338;2023-11-19T01:24:19;95119.19;;;0.52;93.21
47636;BME280;33364;50.766;15.338;2023-11-19T01:26:44;95113.41;;;0.50;92.86
47636;BME280;33364;50.766;15.338;2023-11-19T01:29:14;95112.38;;;0.51;92.83
47636;BME280;33364;50.766;15.338;2023-11-19T01:31:40;95114.53;;;0.54;92.65
47636;BME280;33364;50.766;15.338;2023-11-19T01:34:06;95115.00;;;0.51;92.48
47636;BME280;33364;50.766;15.338;2023-11-19T01:36:32;95087.41;;;0.50;92.51
47636;BME280;33364;50.766;15.338;2023-11-19T01:38:58;95082.44;;;0.49;92.57
47636;BME280;33364;50.766;15.338;2023-11-19T01:41:23;95077.03;;;0.50;92.53
47636;BME280;33364;50.766;15.338;2023-11-19T01:43:50;95081.09;;;0.46;92.48
47636;BME280;33364;50.766;15.338;2023-11-19T01:46:16;95079.03;;;0.48;92.45
47636;BME280;33364;50.766;15.338;2023-11-19T01:48:45;95070.38;;;0.54;92.43
47636;BME280;33364;50.766;15.338;2023-11-19T01:51:14;95067.22;;;0.52;91.70
47636;BME280;33364;50.766;15.338;2023-11-19T01:53:43;95066.56;;;0.57;91.44
47636;BME280;33364;50.766;15.338;2023-11-19T01:56:09;95073.56;;;0.56;90.89
47636;BME280;33364;50.766;15.338;2023-11-19T01:58:38;95068.22;;;0.51;90.46
47636;BME280;33364;50.766;15.338;2023-11-19T02:01:05;95054.22;;;0.52;91.22
47636;BME280;33364;50.766;15.338;2023-11-19T02:03:33;95054.56;;;0.56;91.51
47636;BME280;33364;50.766;15.338;2023-11-19T02:05:59;95065.31;;;0.59;91.42
47636;BME280;33364;50.766;15.338;2023-11-19T02:08:25;95057.38;;;0.54;91.43
47636;BME280;33364;50.766;15.338;2023-11-19T02:10:52;95051.19;;;0.55;91.45
47636;BME280;33364;50.766;15.338;2023-11-19T02:13:18;95044.38;;;0.54;91.29
47636;BME280;33364;50.766;15.338;2023-11-19T02:15:44;95035.81;;;0.54;91.44
47636;BME280;33364;50.766;15.338;2023-11-19T02:18:23;95001.81;;;0.55;91.61
47636;BME280;33364;50.766;15.338;2023-11-19T02:20:57;94996.63;;;0.55;91.52
47636;BME280;33364;50.766;15.338;2023-11-19T02:23:24;94992.44;;;0.54;91.74
47636;BME280;33364;50.766;15.338;2023-11-19T02:28:19;94979.91;;;0.51;92.32
47636;BME280;33364;50.766;15.338;2023-11-19T02:30:45;94977.50;;;0.50;92.36
47636;BME280;33364;50.766;15.338;2023-11-19T02:33:10;94990.72;;;0.48;92.02
47636;BME280;33364;50.766;15.338;2023-11-19T02:35:36;94985.53;;;0.48;92.30
47636;BME280;33364;50.766;15.338;2023-11-19T02:38:02;94984.63;;;0.54;92.45
47636;BME280;33364;50.766;15.338;2023-11-19T02:40:32;94978.06;;;0.40;92.60
47636;BME280;33364;50.766;15.338;2023-11-19T02:42:58;94990.59;;;0.43;92.53
47636;BME280;33364;50.766;15.338;2023-11-19T02:45:25;94989.16;;;0.47;92.68
47636;BME280;33364;50.766;15.338;2023-11-19T02:47:51;94993.19;;;0.43;92.60
47636;BME280;33364;50.766;15.338;2023-11-19T02:50:19;94987.53;;;0.34;92.77
47636;BME280;33364;50.766;15.338;2023-11-19T02:52:52;94985.25;;;0.38;93.00
47636;BME280;33364;50.766;15.338;2023-11-19T02:55:19;94979.38;;;0.31;93.21
47636;BME280;33364;50.766;15.338;2023-11-19T02:57:45;94978.59;;;0.30;93.46
47636;BME280;33364;50.766;15.338;2023-11-19T03:00:21;94968.13;;;0.37;93.70
47636;BME280;33364;50.766;15.338;2023-11-19T03:03:01;94964.06;;;0.41;93.67
47636;BME280;33364;50.766;15.338;2023-11-19T03:05:49;94948.03;;;0.44;93.60
47636;BME280;33364;50.766;15.338;2023-11-19T03:08:15;94949.94;;;0.49;93.44
47636;BME280;33364;50.766;15.338;2023-11-19T03:10:41;94947.59;;;0.47;93.35
47636;BME280;33364;50.766;15.338;2023-11-19T03:13:11;94941.16;;;0.50;93.15
47636;BME280;33364;50.766;15.338;2023-11-19T03:15:39;94949.16;;;0.48;93.23
47636;BME280;33364;50.766;15.338;2023-11-19T03:18:04;94944.53;;;0.50;93.14
47636;BME280;33364;50.766;15.338;2023-11-19T03:20:30;94927.69;;;0.41;93.11
47636;BME280;33364;50.766;15.338;2023-11-19T03:22:56;94904.53;;;0.39;93.26
47636;BME280;33364;50.766;15.338;2023-11-19T03:25:26;94904.63;;;0.33;93.27
47636;BME280;33364;50.766;15.338;2023-11-19T03:28:02;94897.09;;;0.31;93.29
47636;BME280;33364;50.766;15.338;2023-11-19T03:30:29;94897.72;;;0.27;93.37
47636;BME280;33364;50.766;15.338;2023-11-19T03:32:56;94905.50;;;0.15;93.55
47636;BME280;33364;50.766;15.338;2023-11-19T03:35:23;94893.88;;;0.18;93.60
47636;BME280;33364;50.766;15.338;2023-11-19T03:37:49;94888.88;;;0.16;93.66
47636;BME280;33364;50.766;15.338;2023-11-19T03:40:15;94879.78;;;0.25;94.18
47636;BME280;33364;50.766;15.338;2023-11-19T03:42:41;94861.38;;;0.15;93.86
47636;BME280;33364;50.766;15.338;2023-11-19T03:45:07;94845.56;;;0.17;93.96
47636;BME280;33364;50.766;15.338;2023-11-19T03:47:36;94839.34;;;0.18;94.01
47636;BME280;33364;50.766;15.338;2023-11-19T03:50:02;94842.28;;;0.10;94.18
47636;BME280;33364;50.766;15.338;2023-11-19T03:52:28;94847.81;;;0.13;94.25
47636;BME280;33364;50.766;15.338;2023-11-19T03:54:55;94852.22;;;0.13;94.34
47636;BME280;33364;50.766;15.338;2023-11-19T03:57:21;94856.41;;;0.14;94.22
47636;BME280;33364;50.766;15.338;2023-11-19T03:59:47;94845.00;;;0.15;94.36
47636;BME280;33364;50.766;15.338;2023-11-19T04:02:13;94836.19;;;0.16;94.53
47636;BME280;33364;50.766;15.338;2023-11-19T04:04:39;94820.38;;;0.17;94.28
47636;BME280;33364;50.766;15.338;2023-11-19T04:07:05;94822.41;;;0.27;94.40
47636;BME280;33364;50.766;15.338;2023-11-19T04:09:31;94831.91;;;0.21;94.32
47636;BME280;33364;50.766;15.338;2023-11-19T04:12:00;94819.25;;;0.13;94.39
47636;BME280;33364;50.766;15.338;2023-11-19T04:14:26;94809.78;;;0.19;94.46
47636;BME280;33364;50.766;15.338;2023-11-19T04:16:52;94820.16;;;0.19;94.56
47636;BME280;33364;50.766;15.338;2023-11-19T04:19:19;94822.19;;;0.17;94.52
47636;BME280;33364;50.766;15.338;2023-11-19T04:21:44;94808.97;;;0.18;94.52
47636;BME280;33364;50.766;15.338;2023-11-19T04:24:11;94803.47;;;0.15;94.38
47636;BME280;33364;50.766;15.338;2023-11-19T04:26:43;94810.56;;;0.08;94.49
47636;BME280;33364;50.766;15.338;2023-11-19T04:29:15;94793.28;;;0.13;94.50
47636;BME280;33364;50.766;15.338;2023-11-19T04:31:43;94779.63;;;0.06;94.33
47636;BME280;33364;50.766;15.338;2023-11-19T04:34:09;94779.28;;;0.03;94.53
47636;BME280;33364;50.766;15.338;2023-11-19T04:36:36;94791.25;;;0.04;94.55
47636;BME280;33364;50.766;15.338;2023-11-19T04:39:03;94780.41;;;0.07;94.52
47636;BME280;33364;50.766;15.338;2023-11-19T04:41:49;94783.47;;;0.04;94.83
47636;BME280;33364;50.766;15.338;2023-11-19T04:44:16;94781.66;;;0.04;94.69
47636;BME280;33364;50.766;15.338;2023-11-19T04:46:42;94776.47;;;0.04;94.45
47636;BME280;33364;50.766;15.338;2023-11-19T04:49:10;94782.22;;;0.06;94.22
47636;BME280;33364;50.766;15.338;2023-11-19T04:51:44;94777.38;;;0.10;94.08
47636;BME280;33364;50.766;15.338;2023-11-19T04:54:12;94788.78;;;0.09;94.03
47636;BME280;33364;50.766;15.338;2023-11-19T04:56:38;94788.78;;;0.09;94.23
47636;BME280;33364;50.766;15.338;2023-11-19T04:59:05;94775.44;;;0.17;93.98
47636;BME280;33364;50.766;15.338;2023-11-19T05:01:32;94773.22;;;0.20;94.04
47636;BME280;33364;50.766;15.338;2023-11-19T05:03:59;94790.47;;;0.15;93.62
47636;BME280;33364;50.766;15.338;2023-11-19T05:06:29;94772.41;;;0.20;93.76
47636;BME280;33364;50.766;15.338;2023-11-19T05:08:59;94773.53;;;0.24;93.69
47636;BME280;33364;50.766;15.338;2023-11-19T05:11:30;94765.19;;;0.22;93.83
47636;BME280;33364;50.766;15.338;2023-11-19T05:13:56;94762.38;;;0.23;93.94
47636;BME280;33364;50.766;15.338;2023-11-19T05:16:21;94759.44;;;0.31;93.89
47636;BME280;33364;50.766;15.338;2023-11-19T05:18:47;94759.56;;;0.36;93.77
47636;BME280;33364;50.766;15.338;2023-11-19T05:21:13;94762.69;;;0.27;93.79
47636;BME280;33364;50.766;15.338;2023-11-19T05:23:39;94760.47;;;0.30;94.13
47636;BME280;33364;50.766;15.338;2023-11-19T05:26:06;94757.28;;;0.28;94.02
47636;BME280;33364;50.766;15.338;2023-11-19T05:28:32;94747.22;;;0.32;93.88
47636;BME280;33364;50.766;15.338;2023-11-19T05:30:58;94741.59;;;0.35;93.75
47636;BME280;33364;50.766;15.338;2023-11-19T05:33:24;94742.03;;;0.32;93.83
47636;BME280;33364;50.766;15.338;2023-11-19T05:35:49;94732.22;;;0.34;93.85
47636;BME280;33364;50.766;15.338;2023-11-19T05:38:15;94721.94;;;0.39;93.98
47636;BME280;33364;50.766;15.338;2023-11-19T05:40:41;94724.44;;;0.34;93.83
47636;BME280;33364;50.766;15.338;2023-11-19T05:43:07;94709.41;;;0.36;94.06
47636;BME280;33364;50.766;15.338;2023-11-19T05:45:33;94700.84;;;0.35;94.24
47636;BME280;33364;50.766;15.338;2023-11-19T05:47:59;94704.13;;;0.31;94.14
47636;BME280;33364;50.766;15.338;2023-11-19T05:50:25;94687.06;;;0.35;94.36
47636;BME280;33364;50.766;15.338;2023-11-19T05:52:51;94680.84;;;0.36;94.45
47636;BME280;33364;50.766;15.338;2023-11-19T05:55:18;94683.19;;;0.37;94.48
47636;BME280;33364;50.766;15.338;2023-11-19T05:57:45;94690.56;;;0.40;94.70
47636;BME280;33364;50.766;15.338;2023-11-19T06:00:11;94688.75;;;0.41;94.91
47636;BME280;33364;50.766;15.338;2023-11-19T06:02:38;94685.69;;;0.44;94.88
47636;BME280;33364;50.766;15.338;2023-11-19T06:05:05;94682.75;;;0.40;94.84
47636;BME280;33364;50.766;15.338;2023-11-19T06:07:33;94681.28;;;0.45;95.07
47636;BME280;33364;50.766;15.338;2023-11-19T06:09:58;94681.28;;;0.45;94.69
47636;BME280;33364;50.766;15.338;2023-11-19T06:12:24;94681.50;;;0.43;95.04
47636;BME280;33364;50.766;15.338;2023-11-19T06:14:53;94672.25;;;0.47;95.24
47636;BME280;33364;50.766;15.338;2023-11-19T06:17:19;94671.56;;;0.52;95.23
47636;BME280;33364;50.766;15.338;2023-11-19T06:19:44;94674.28;;;0.45;95.34
47636;BME280;33364;50.766;15.338;2023-11-19T06:22:10;94669.88;;;0.46;95.31
47636;BME280;33364;50.766;15.338;2023-11-19T06:24:36;94671.69;;;0.45;95.62
47636;BME280;33364;50.766;15.338;2023-11-19T06:27:02;94679.00;;;0.48;95.42
47636;BME280;33364;50.766;15.338;2023-11-19T06:29:28;94669.41;;;0.49;95.66
47636;BME280;33364;50.766;15.338;2023-11-19T06:31:54;94666.38;;;0.52;95.50
47636;BME280;33364;50.766;15.338;2023-11-19T06:34:19;94660.06;;;0.48;95.47
47636;BME280;33364;50.766;15.338;2023-11-19T06:36:45;94660.28;;;0.46;95.58
47636;BME280;33364;50.766;15.338;2023-11-19T06:39:11;94661.50;;;0.43;95.39
47636;BME280;33364;50.766;15.338;2023-11-19T06:41:38;94659.16;;;0.42;95.64
47636;BME280;33364;50.766;15.338;2023-11-19T06:44:04;94660.41;;;0.39;95.87
47636;BME280;33364;50.766;15.338;2023-11-19T06:46:30;94657.69;;;0.46;95.99
47636;BME280;33364;50.766;15.338;2023-11-19T06:48:56;94658.22;;;0.48;96.15
47636;BME280;33364;50.766;15.338;2023-11-19T06:51:23;94668.72;;;0.53;96.13
47636;BME280;33364;50.766;15.338;2023-11-19T06:53:50;94657.41;;;0.59;95.76
47636;BME280;33364;50.766;15.338;2023-11-19T06:56:23;94645.69;;;0.57;95.49
47636;BME280;33364;50.766;15.338;2023-11-19T06:58:49;94637.09;;;0.56;95.55
47636;BME280;33364;50.766;15.338;2023-11-19T07:01:16;94627.25;;;0.58;95.20
47636;BME280;33364;50.766;15.338;2023-11-19T07:03:46;94625.22;;;0.60;95.18
47636;BME280;33364;50.766;15.338;2023-11-19T07:06:12;94623.09;;;0.57;95.11
47636;BME280;33364;50.766;15.338;2023-11-19T07:08:41;94612.00;;;0.62;95.07
47636;BME280;33364;50.766;15.338;2023-11-19T07:11:07;94619.78;;;0.62;95.09
47636;BME280;33364;50.766;15.338;2023-11-19T07:13:35;94619.78;;;0.62;94.91
47636;BME280;33364;50.766;15.338;2023-11-19T07:16:01;94608.59;;;0.61;95.16
47636;BME280;33364;50.766;15.338;2023-11-19T07:18:27;94621.59;;;0.61;95.15
47636;BME280;33364;50.766;15.338;2023-11-19T07:20:53;94643.63;;;0.59;95.22
47636;BME280;33364;50.766;15.338;2023-11-19T07:23:19;94636.09;;;0.57;95.07
47636;BME280;33364;50.766;15.338;2023-11-19T07:25:44;94650.22;;;0.50;95.18
47636;BME280;33364;50.766;15.338;2023-11-19T07:28:15;94656.41;;;0.49;95.43
47636;BME280;33364;50.766;15.338;2023-11-19T07:30:42;94645.81;;;0.50;95.45
47636;BME280;33364;50.766;15.338;2023-11-19T07:33:08;94651.00;;;0.50;95.32
47636;BME280;33364;50.766;15.338;2023-11-19T07:35:34;94637.91;;;0.45;95.40
47636;BME280;33364;50.766;15.338;2023-11-19T07:37:59;94638.00;;;0.50;95.44
47636;BME280;33364;50.766;15.338;2023-11-19T07:40:25;94638.47;;;0.47;95.35
47636;BME280;33364;50.766;15.338;2023-11-19T07:42:51;94637.13;;;0.45;95.34
47636;BME280;33364;50.766;15.338;2023-11-19T07:45:17;94633.81;;;0.49;95.46
47636;BME280;33364;50.766;15.338;2023-11-19T07:47:43;94631.47;;;0.48;95.49
47636;BME280;33364;50.766;15.338;2023-11-19T07:50:10;94626.81;;;0.50;95.44
47636;BME280;33364;50.766;15.338;2023-11-19T07:52:38;94624.94;;;0.45;95.50
47636;BME280;33364;50.766;15.338;2023-11-19T07:55:04;94613.03;;;0.49;95.56
47636;BME280;33364;50.766;15.338;2023-11-19T07:57:30;94617.44;;;0.49;95.55
47636;BME280;33364;50.766;15.338;2023-11-19T07:59:57;94617.00;;;0.52;95.63
47636;BME280;33364;50.766;15.338;2023-11-19T08:02:23;94611.03;;;0.51;95.77
47636;BME280;33364;50.766;15.338;2023-11-19T08:04:49;94600.31;;;0.48;95.68
47636;BME280;33364;50.766;15.338;2023-11-19T08:07:18;94591.81;;;0.52;95.91
47636;BME280;33364;50.766;15.338;2023-11-19T08:09:45;94590.78;;;0.53;95.72
47636;BME280;33364;50.766;15.338;2023-11-19T08:12:10;94583.00;;;0.53;95.69
47636;BME280;33364;50.766;15.338;2023-11-19T08:14:36;94581.28;;;0.59;95.74
47636;BME280;33364;50.766;15.338;2023-11-19T08:17:02;94596.19;;;0.63;95.65
47636;BME280;33364;50.766;15.338;2023-11-19T08:19:28;94589.84;;;0.59;95.24
47636;BME280;33364;50.766;15.338;2023-11-19T08:21:54;94595.06;;;0.59;95.22
47636;BME280;33364;50.766;15.338;2023-11-19T08:24:20;94585.59;;;0.53;95.18
47636;BME280;33364;50.766;15.338;2023-11-19T08:26:45;94593.38;;;0.53;95.27
47636;BME280;33364;50.766;15.338;2023-11-19T08:29:11;94602.31;;;0.57;95.15
47636;BME280;33364;50.766;15.338;2023-11-19T08:31:38;94617.19;;;0.62;95.51
47636;BME280;33364;50.766;15.338;2023-11-19T08:34:04;94629.72;;;0.65;95.08
47636;BME280;33364;50.766;15.338;2023-11-19T08:36:34;94613.41;;;0.53;95.12
47636;BME280;33364;50.766;15.338;2023-11-19T08:39:00;94605.81;;;0.51;95.06
47636;BME280;33364;50.766;15.338;2023-11-19T08:41:26;94596.31;;;0.57;95.34
47636;BME280;33364;50.766;15.338;2023-11-19T08:43:52;94583.06;;;0.58;95.16
47636;BME280;33364;50.766;15.338;2023-11-19T08:46:18;94570.88;;;0.59;95.03
47636;BME280;33364;50.766;15.338;2023-11-19T08:48:44;94579.00;;;0.62;95.02
47636;BME280;33364;50.766;15.338;2023-11-19T08:51:12;94570.28;;;0.68;95.04
47636;BME280;33364;50.766;15.338;2023-11-19T08:53:38;94557.38;;;0.73;94.97
47636;BME280;33364;50.766;15.338;2023-11-19T08:56:04;94571.00;;;0.80;95.05
47636;BME280;33364;50.766;15.338;2023-11-19T08:58:31;94579.28;;;0.77;94.68
47636;BME280;33364;50.766;15.338;2023-11-19T09:00:56;94594.13;;;0.65;94.65
47636;BME280;33364;50.766;15.338;2023-11-19T09:03:23;94592.88;;;0.68;94.89
47636;BME280;33364;50.766;15.338;2023-11-19T09:05:51;94602.00;;;0.70;94.88
47636;BME280;33364;50.766;15.338;2023-11-19T09:08:17;94604.13;;;0.57;94.87
47636;BME280;33364;50.766;15.338;2023-11-19T09:10:43;94600.03;;;0.61;94.96
47636;BME280;33364;50.766;15.338;2023-11-19T09:13:09;94596.84;;;0.59;95.11
47636;BME280;33364;50.766;15.338;2023-11-19T09:15:34;94592.00;;;0.62;95.05
47636;BME280;33364;50.766;15.338;2023-11-19T09:18:00;94594.25;;;0.59;94.89
47636;BME280;33364;50.766;15.338;2023-11-19T09:20:26;94581.63;;;0.62;94.95
47636;BME280;33364;50.766;15.338;2023-11-19T09:22:51;94580.69;;;0.68;94.99
47636;BME280;33364;50.766;15.338;2023-11-19T09:25:17;94576.16;;;0.64;94.98
47636;BME280;33364;50.766;15.338;2023-11-19T09:27:44;94580.22;;;0.71;95.09
47636;BME280;33364;50.766;15.338;2023-11-19T09:30:10;94577.38;;;0.73;94.87
47636;BME280;33364;50.766;15.338;2023-11-19T09:32:36;94582.91;;;0.76;94.58
47636;BME280;33364;50.766;15.338;2023-11-19T09:35:03;94582.91;;;0.76;94.83
47636;BME280;33364;50.766;15.338;2023-11-19T09:37:29;94581.66;;;0.79;94.96
47636;BME280;33364;50.766;15.338;2023-11-19T09:39:55;94581.88;;;0.77;94.73
47636;BME280;33364;50.766;15.338;2023-11-19T09:42:21;94563.22;;;0.80;94.63
47636;BME280;33364;50.766;15.338;2023-11-19T09:44:47;94559.50;;;0.76;94.71
47636;BME280;33364;50.766;15.338;2023-11-19T09:47:14;94558.06;;;0.69;94.79
47636;BME280;33364;50.766;15.338;2023-11-19T09:49:40;94570.47;;;0.78;94.66
47636;BME280;33364;50.766;15.338;2023-11-19T09:52:06;94570.13;;;0.75;94.73
47636;BME280;33364;50.766;15.338;2023-11-19T09:54:32;94566.19;;;0.72;94.75
47636;BME280;33364;50.766;15.338;2023-11-19T09:56:59;94558.50;;;0.77;94.78
47636;BME280;33364;50.766;15.338;2023-11-19T09:59:32;94558.56;;;0.82;94.79
47636;BME280;33364;50.766;15.338;2023-11-19T10:01:59;94550.63;;;0.72;94.52
47636;BME280;33364;50.766;15.338;2023-11-19T10:04:25;94558.72;;;0.76;94.80
47636;BME280;33364;50.766;15.338;2023-11-19T10:06:55;94557.31;;;0.68;94.64
47636;BME280;33364;50.766;15.338;2023-11-19T11:57:16;94487.72;;;1.42;93.52
47636;BME280;33364;50.766;15.338;2023-11-19T12:02:11;94482.34;;;1.49;93.34
47636;BME280;33364;50.766;15.338;2023-11-19T12:04:39;94483.25;;;1.59;93.21
47636;BME280;33364;50.766;15.338;2023-11-19T12:07:11;94465.06;;;1.81;92.66
47636;BME280;33364;50.766;15.338;2023-11-19T12:09:42;94481.47;;;1.82;92.17
47636;BME280;33364;50.766;15.338;2023-11-19T12:20:06;94486.03;;;1.75;92.00
47636;BME280;33364;50.766;15.338;2023-11-19T12:22:37;94486.78;;;1.70;91.76
47636;BME280;33364;50.766;15.338;2023-11-19T12:25:08;94490.34;;;1.64;91.75
47636;BME280;33364;50.766;15.338;2023-11-19T12:27:45;94472.84;;;1.59;91.93
47636;BME280;33364;50.766;15.338;2023-11-19T12:30:11;94469.53;;;1.64;91.94
47636;BME280;33364;50.766;15.338;2023-11-19T12:32:45;94470.25;;;1.59;92.22
47636;BME280;33364;50.766;15.338;2023-11-19T12:35:12;94453.22;;;1.68;92.03
47636;BME280;33364;50.766;15.338;2023-11-19T12:37:42;94436.81;;;1.68;92.06
47636;BME280;33364;50.766;15.338;2023-11-19T12:42:41;94448.47;;;1.65;92.22
47636;BME280;33364;50.766;15.338;2023-11-19T12:45:07;94435.16;;;1.62;92.50
47636;BME280;33364;50.766;15.338;2023-11-19T12:47:38;94432.31;;;1.63;92.32
47636;BME280;33364;50.766;15.338;2023-11-19T12:50:05;94427.28;;;1.57;92.54
47636;BME280;33364;50.766;15.338;2023-11-19T12:52:32;94425.47;;;1.57;92.82
47636;BME280;33364;50.766;15.338;2023-11-19T12:54:58;94434.88;;;1.58;93.05
47636;BME280;33364;50.766;15.338;2023-11-19T13:00:04;94432.28;;;1.58;92.62
47636;BME280;33364;50.766;15.338;2023-11-19T13:02:53;94435.91;;;1.57;92.81
47636;BME280;33364;50.766;15.338;2023-11-19T13:10:29;94426.16;;;1.48;93.08
47636;BME280;33364;50.766;15.338;2023-11-19T13:13:02;94427.19;;;1.47;93.27
47636;BME280;33364;50.766;15.338;2023-11-19T13:15:28;94420.63;;;1.44;93.10
47636;BME280;33364;50.766;15.338;2023-11-19T13:17:54;94428.13;;;1.41;93.07
47636;BME280;33364;50.766;15.338;2023-11-19T13:20:20;94423.41;;;1.38;93.06
47636;BME280;33364;50.766;15.338;2023-11-19T13:22:56;94421.34;;;1.40;93.39
47636;BME280;33364;50.766;15.338;2023-11-19T13:25:22;94418.97;;;1.38;93.20
47636;BME280;33364;50.766;15.338;2023-11-19T13:27:48;94422.69;;;1.42;93.14
47636;BME280;33364;50.766;15.338;2023-11-19T13:30:15;94427.84;;;1.37;93.00
47636;BME280;33364;50.766;15.338;2023-11-19T13:32:40;94421.00;;;1.31;93.20
47636;BME280;33364;50.766;15.338;2023-11-19T13:35:06;94412.41;;;1.31;93.53
47636;BME280;33364;50.766;15.338;2023-11-19T13:37:34;94408.06;;;1.36;93.73
47636;BME280;33364;50.766;15.338;2023-11-19T13:40:00;94404.09;;;1.34;93.61
47636;BME280;33364;50.766;15.338;2023-11-19T13:42:26;94405.91;;;1.33;93.83
47636;BME280;33364;50.766;15.338;2023-11-19T13:44:53;94402.53;;;1.33;93.89
47636;BME280;33364;50.766;15.338;2023-11-19T13:47:19;94405.13;;;1.33;93.64
47636;BME280;33364;50.766;15.338;2023-11-19T13:49:45;94408.28;;;1.35;93.87
47636;BME280;33364;50.766;15.338;2023-11-19T13:52:10;94410.09;;;1.34;93.64
47636;BME280;33364;50.766;15.338;2023-11-19T13:54:37;94411.31;;;1.26;93.76
47636;BME280;33364;50.766;15.338;2023-11-19T13:57:03;94403.75;;;1.25;93.75
47636;BME280;33364;50.766;15.338;2023-11-19T13:59:33;94402.72;;;1.26;94.26
47636;BME280;33364;50.766;15.338;2023-11-19T14:01:58;94402.72;;;1.26;94.16
47636;BME280;33364;50.766;15.338;2023-11-19T14:04:24;94405.84;;;1.28;94.23
47636;BME280;33364;50.766;15.338;2023-11-19T14:06:51;94397.75;;;1.24;93.92
47636;BME280;33364;50.766;15.338;2023-11-19T14:09:17;94402.16;;;1.24;93.91
47636;BME280;33364;50.766;15.338;2023-11-19T14:11:43;94403.75;;;1.25;93.90
47636;BME280;33364;50.766;15.338;2023-11-19T14:14:09;94412.06;;;1.27;93.96
47636;BME280;33364;50.766;15.338;2023-11-19T14:16:35;94411.47;;;1.20;93.97
47636;BME280;33364;50.766;15.338;2023-11-19T14:19:01;94406.28;;;1.20;94.02
47636;BME280;33364;50.766;15.338;2023-11-19T14:21:27;94403.69;;;1.20;94.57
47636;BME280;33364;50.766;15.338;2023-11-19T14:23:53;94402.72;;;1.26;94.67
47636;BME280;33364;50.766;15.338;2023-11-19T14:26:19;94404.59;;;1.31;94.43
47636;BME280;33364;50.766;15.338;2023-11-19T14:28:45;94408.00;;;1.31;94.48
47636;BME280;33364;50.766;15.338;2023-11-19T14:31:11;94405.13;;;1.33;94.06
47636;BME280;33364;50.766;15.338;2023-11-19T14:33:37;94418.13;;;1.33;94.23
47636;BME280;33364;50.766;15.338;2023-11-19T14:36:04;94416.03;;;1.30;94.10
47636;BME280;33364;50.766;15.338;2023-11-19T14:38:30;94424.00;;;1.23;94.10
47636;BME280;33364;50.766;15.338;2023-11-19T14:40:58;94426.75;;;1.16;94.26
47636;BME280;33364;50.766;15.338;2023-11-19T14:43:25;94426.47;;;1.13;94.82
47636;BME280;33364;50.766;15.338;2023-11-19T14:45:51;94420.00;;;1.15;95.18
47636;BME280;33364;50.766;15.338;2023-11-19T14:48:17;94414.03;;;1.15;95.14
47636;BME280;33364;50.766;15.338;2023-11-19T14:50:43;94419.22;;;1.15;95.21
47636;BME280;33364;50.766;15.338;2023-11-19T14:53:10;94410.69;;;1.19;94.80
47636;BME280;33364;50.766;15.338;2023-11-19T14:55:36;94418.66;;;1.13;94.77
47636;BME280;33364;50.766;15.338;2023-11-19T14:58:02;94405.38;;;1.09;94.87
47636;BME280;33364;50.766;15.338;2023-11-19T15:00:27;94413.41;;;1.08;95.05
47636;BME280;33364;50.766;15.338;2023-11-19T15:02:54;94418.38;;;1.09;94.93
47636;BME280;33364;50.766;15.338;2023-11-19T15:05:21;94414.19;;;1.08;95.11
47636;BME280;33364;50.766;15.338;2023-11-19T15:07:47;94419.69;;;1.12;94.83
47636;BME280;33364;50.766;15.338;2023-11-19T15:10:13;94413.16;;;1.09;94.84